< < Back
Terminal Aerodrome Forecast


Current Version              Previous Versions:   1  2  3  4  5  6  7  8  9  

Terminal Aerodrome Forecast

211
FTUS42 KTAE 171700
TAFTLH
TAF
KTLH 171720Z 1718/1818 06012G18KT P6SM SCT026 SCT250
     FM180000 08010KT P6SM OVC015
     FM180700 08010KT 5SM RA OVC008
     FM181200 07013G20KT 2SM +RA OVC006=

Latest METAR

176
SAUS80 KWBC 180300
MTRTLH
METAR KTLH 180253Z 08010KT 10SM BKN020 OVC065 18/14 A3020 RMK AO2 RAE30
SLP225 LAST AUGMENTED OBS P0001 60001 T01780139 55007


USA.gov is the U.S. government's official web portal to all federal, state and local government web resources and services.